sensor_id;sensor_type;location;lat;lon;timestamp;pressure;altitude;pressure_sealevel;temperature;humidity
39411;BME280;26579;43.238;23.124;2023-08-07T00:00:56;96333.28;;;20.07;67.24
39411;BME280;26579;43.238;23.124;2023-08-07T00:03:22;96335.53;;;20.10;65.50
39411;BME280;26579;43.238;23.124;2023-08-07T00:05:48;96343.44;;;20.10;65.05
39411;BME280;26579;43.238;23.124;2023-08-07T00:08:14;96334.94;;;20.08;64.41
39411;BME280;26579;43.238;23.124;2023-08-07T00:10:39;96341.44;;;20.05;64.87
39411;BME280;26579;43.238;23.124;2023-08-07T00:13:06;96344.25;;;20.04;65.26
39411;BME280;26579;43.238;23.124;2023-08-07T00:15:32;96346.31;;;20.02;65.65
39411;BME280;26579;43.238;23.124;2023-08-07T00:17:57;96354.41;;;19.94;66.96
39411;BME280;26579;43.238;23.124;2023-08-07T00:20:23;96355.59;;;19.91;65.93
39411;BME280;26579;43.238;23.124;2023-08-07T00:22:49;96348.09;;;19.88;66.59
39411;BME280;26579;43.238;23.124;2023-08-07T00:25:14;96356.19;;;19.86;67.20
39411;BME280;26579;43.238;23.124;2023-08-07T00:27:40;96356.78;;;19.75;68.04
39411;BME280;26579;43.238;23.124;2023-08-07T00:30:06;96340.94;;;19.75;63.83
39411;BME280;26579;43.238;23.124;2023-08-07T00:32:32;96345.19;;;19.76;64.43
39411;BME280;26579;43.238;23.124;2023-08-07T00:34:59;96344.97;;;19.71;63.12
39411;BME280;26579;43.238;23.124;2023-08-07T00:37:24;96347.22;;;19.74;60.15
39411;BME280;26579;43.238;23.124;2023-08-07T00:39:50;96353.94;;;19.83;59.78
39411;BME280;26579;43.238;23.124;2023-08-07T00:42:16;96330.56;;;19.74;61.18
39411;BME280;26579;43.238;23.124;2023-08-07T00:44:41;96329.13;;;19.78;61.47
39411;BME280;26579;43.238;23.124;2023-08-07T00:47:07;96336.09;;;19.85;57.78
39411;BME280;26579;43.238;23.124;2023-08-07T00:49:33;96342.63;;;19.96;58.37
39411;BME280;26579;43.238;23.124;2023-08-07T00:51:59;96345.88;;;19.98;61.04
39411;BME280;26579;43.238;23.124;2023-08-07T00:54:25;96354.19;;;19.95;61.14
39411;BME280;26579;43.238;23.124;2023-08-07T00:56:51;96355.03;;;19.96;59.29
39411;BME280;26579;43.238;23.124;2023-08-07T00:59:18;96367.22;;;19.97;56.42
39411;BME280;26579;43.238;23.124;2023-08-07T01:01:44;96366.81;;;19.93;57.34
39411;BME280;26579;43.238;23.124;2023-08-07T01:04:10;96363.72;;;19.89;57.62
39411;BME280;26579;43.238;23.124;2023-08-07T01:06:36;96364.75;;;19.88;59.54
39411;BME280;26579;43.238;23.124;2023-08-07T01:09:02;96384.28;;;19.94;58.83
39411;BME280;26579;43.238;23.124;2023-08-07T01:14:37;96385.28;;;19.93;57.68
39411;BME280;26579;43.238;23.124;2023-08-07T01:17:17;96385.69;;;19.90;60.36
39411;BME280;26579;43.238;23.124;2023-08-07T01:19:45;96379.94;;;19.73;62.83
39411;BME280;26579;43.238;23.124;2023-08-07T01:22:11;96394.34;;;19.71;65.71
39411;BME280;26579;43.238;23.124;2023-08-07T01:24:40;96394.44;;;19.56;62.40
39411;BME280;26579;43.238;23.124;2023-08-07T01:35:34;96377.66;;;19.35;63.33
39411;BME280;26579;43.238;23.124;2023-08-07T01:38:02;96391.41;;;19.24;63.26
39411;BME280;26579;43.238;23.124;2023-08-07T01:40:29;96383.25;;;19.19;61.28
39411;BME280;26579;43.238;23.124;2023-08-07T01:42:56;96398.94;;;19.27;59.49
39411;BME280;26579;43.238;23.124;2023-08-07T01:45:23;96402.22;;;19.36;62.17
39411;BME280;26579;43.238;23.124;2023-08-07T01:47:49;96397.34;;;19.33;63.10
39411;BME280;26579;43.238;23.124;2023-08-07T01:50:15;96399.94;;;19.26;65.94
39411;BME280;26579;43.238;23.124;2023-08-07T01:52:41;96401.00;;;19.32;64.42
39411;BME280;26579;43.238;23.124;2023-08-07T01:55:07;96402.00;;;19.31;64.11
39411;BME280;26579;43.238;23.124;2023-08-07T01:57:33;96400.81;;;19.40;64.69
39411;BME280;26579;43.238;23.124;2023-08-07T01:59:59;96403.44;;;19.33;64.80
39411;BME280;26579;43.238;23.124;2023-08-07T02:02:24;96421.47;;;19.30;65.10
39411;BME280;26579;43.238;23.124;2023-08-07T02:04:50;96426.56;;;19.31;64.70
39411;BME280;26579;43.238;23.124;2023-08-07T02:07:16;96424.16;;;19.36;64.83
39411;BME280;26579;43.238;23.124;2023-08-07T02:09:41;96436.53;;;19.36;65.77
39411;BME280;26579;43.238;23.124;2023-08-07T02:12:08;96436.94;;;19.33;65.12
39411;BME280;26579;43.238;23.124;2023-08-07T02:14:34;96422.28;;;19.30;66.61
39411;BME280;26579;43.238;23.124;2023-08-07T02:16:59;96437.88;;;19.25;66.01
39411;BME280;26579;43.238;23.124;2023-08-07T02:19:25;96430.31;;;19.15;65.79
39411;BME280;26579;43.238;23.124;2023-08-07T02:21:51;96431.47;;;19.06;65.26
39411;BME280;26579;43.238;23.124;2023-08-07T02:24:16;96432.66;;;19.04;66.08
39411;BME280;26579;43.238;23.124;2023-08-07T02:26:42;96433.03;;;19.00;66.02
39411;BME280;26579;43.238;23.124;2023-08-07T02:29:08;96439.94;;;19.02;66.98
39411;BME280;26579;43.238;23.124;2023-08-07T02:31:33;96445.84;;;19.04;67.29
39411;BME280;26579;43.238;23.124;2023-08-07T02:33:59;96432.31;;;18.85;64.01
39411;BME280;26579;43.238;23.124;2023-08-07T02:36:25;96432.22;;;18.78;62.49
39411;BME280;26579;43.238;23.124;2023-08-07T02:38:50;96442.28;;;18.90;63.20
39411;BME280;26579;43.238;23.124;2023-08-07T02:41:16;96430.56;;;18.99;63.24
39411;BME280;26579;43.238;23.124;2023-08-07T02:43:41;96430.44;;;19.07;65.26
39411;BME280;26579;43.238;23.124;2023-08-07T02:46:08;96433.59;;;19.17;63.65
39411;BME280;26579;43.238;23.124;2023-08-07T02:48:34;96448.59;;;19.17;63.45
39411;BME280;26579;43.238;23.124;2023-08-07T02:50:59;96450.91;;;19.05;63.95
39411;BME280;26579;43.238;23.124;2023-08-07T02:53:25;96457.72;;;18.93;63.27
39411;BME280;26579;43.238;23.124;2023-08-07T02:55:50;96456.53;;;18.95;64.03
39411;BME280;26579;43.238;23.124;2023-08-07T02:58:16;96453.78;;;18.82;65.58
39411;BME280;26579;43.238;23.124;2023-08-07T03:00:42;96460.56;;;18.91;65.67
39411;BME280;26579;43.238;23.124;2023-08-07T03:03:07;96453.47;;;18.92;67.07
39411;BME280;26579;43.238;23.124;2023-08-07T03:05:33;96453.41;;;18.85;65.46
39411;BME280;26579;43.238;23.124;2023-08-07T03:07:59;96450.91;;;18.77;66.65
39411;BME280;26579;43.238;23.124;2023-08-07T03:10:24;96468.59;;;18.83;66.50
39411;BME280;26579;43.238;23.124;2023-08-07T03:12:50;96478.75;;;18.86;66.23
39411;BME280;26579;43.238;23.124;2023-08-07T03:15:16;96478.34;;;18.83;68.32
39411;BME280;26579;43.238;23.124;2023-08-07T03:17:42;96490.44;;;18.77;66.53
39411;BME280;26579;43.238;23.124;2023-08-07T03:20:08;96493.59;;;18.72;66.51
39411;BME280;26579;43.238;23.124;2023-08-07T03:22:34;96486.28;;;18.68;66.79
39411;BME280;26579;43.238;23.124;2023-08-07T03:24:59;96503.19;;;18.73;65.21
39411;BME280;26579;43.238;23.124;2023-08-07T03:27:25;96506.34;;;18.69;66.12
39411;BME280;26579;43.238;23.124;2023-08-07T03:29:51;96496.44;;;18.71;66.91
39411;BME280;26579;43.238;23.124;2023-08-07T03:32:18;96490.47;;;18.62;65.75
39411;BME280;26579;43.238;23.124;2023-08-07T03:34:43;96502.25;;;18.66;66.79
39411;BME280;26579;43.238;23.124;2023-08-07T03:37:09;96494.09;;;18.61;66.57
39411;BME280;26579;43.238;23.124;2023-08-07T03:39:36;96500.25;;;18.68;66.20
39411;BME280;26579;43.238;23.124;2023-08-07T03:42:02;96510.19;;;18.66;66.57
39411;BME280;26579;43.238;23.124;2023-08-07T03:44:28;96523.41;;;18.73;65.64
39411;BME280;26579;43.238;23.124;2023-08-07T03:46:54;96514.59;;;18.44;66.93
39411;BME280;26579;43.238;23.124;2023-08-07T03:49:22;96512.22;;;18.49;66.89
39411;BME280;26579;43.238;23.124;2023-08-07T03:51:49;96521.50;;;18.45;68.64
39411;BME280;26579;43.238;23.124;2023-08-07T03:54:14;96516.78;;;18.41;67.33
39411;BME280;26579;43.238;23.124;2023-08-07T03:56:40;96518.88;;;18.45;68.03
39411;BME280;26579;43.238;23.124;2023-08-07T03:59:06;96526.84;;;18.52;68.53
39411;BME280;26579;43.238;23.124;2023-08-07T04:01:32;96530.28;;;18.52;68.32
39411;BME280;26579;43.238;23.124;2023-08-07T04:03:58;96529.84;;;18.49;67.41
39411;BME280;26579;43.238;23.124;2023-08-07T04:06:24;96529.69;;;18.50;67.32
39411;BME280;26579;43.238;23.124;2023-08-07T04:08:49;96532.94;;;18.52;68.20
39411;BME280;26579;43.238;23.124;2023-08-07T04:11:15;96527.28;;;18.55;67.02
39411;BME280;26579;43.238;23.124;2023-08-07T04:13:41;96543.47;;;18.52;66.45
39411;BME280;26579;43.238;23.124;2023-08-07T04:16:07;96538.03;;;18.54;66.53
39411;BME280;26579;43.238;23.124;2023-08-07T04:18:33;96532.69;;;18.47;66.74
39411;BME280;26579;43.238;23.124;2023-08-07T04:21:01;96545.66;;;18.49;66.68
39411;BME280;26579;43.238;23.124;2023-08-07T04:23:26;96550.28;;;18.47;66.91
39411;BME280;26579;43.238;23.124;2023-08-07T04:25:53;96547.84;;;18.45;67.49
39411;BME280;26579;43.238;23.124;2023-08-07T04:28:19;96552.56;;;18.50;66.89
39411;BME280;26579;43.238;23.124;2023-08-07T04:30:48;96535.31;;;18.47;66.21
39411;BME280;26579;43.238;23.124;2023-08-07T04:33:14;96549.44;;;18.61;66.07
39411;BME280;26579;43.238;23.124;2023-08-07T04:35:39;96539.75;;;18.62;66.17
39411;BME280;26579;43.238;23.124;2023-08-07T04:38:05;96543.09;;;18.70;66.10
39411;BME280;26579;43.238;23.124;2023-08-07T04:40:31;96541.88;;;18.73;65.00
39411;BME280;26579;43.238;23.124;2023-08-07T04:42:57;96528.19;;;18.77;64.28
39411;BME280;26579;43.238;23.124;2023-08-07T04:45:22;96527.63;;;18.82;64.86
39411;BME280;26579;43.238;23.124;2023-08-07T04:47:48;96539.69;;;18.91;64.97
39411;BME280;26579;43.238;23.124;2023-08-07T04:50:14;96537.91;;;18.98;65.05
39411;BME280;26579;43.238;23.124;2023-08-07T04:52:39;96535.28;;;18.98;64.71
39411;BME280;26579;43.238;23.124;2023-08-07T04:55:05;96537.41;;;19.10;64.79
39411;BME280;26579;43.238;23.124;2023-08-07T04:57:31;96523.78;;;19.06;65.73
39411;BME280;26579;43.238;23.124;2023-08-07T04:59:57;96534.28;;;19.21;64.11
39411;BME280;26579;43.238;23.124;2023-08-07T05:02:22;96539.66;;;19.34;65.90
39411;BME280;26579;43.238;23.124;2023-08-07T05:04:48;96539.31;;;19.37;64.23
39411;BME280;26579;43.238;23.124;2023-08-07T05:07:14;96533.06;;;19.45;62.91
39411;BME280;26579;43.238;23.124;2023-08-07T05:09:39;96529.84;;;19.50;62.28
39411;BME280;26579;43.238;23.124;2023-08-07T05:12:06;96532.41;;;19.64;62.71
39411;BME280;26579;43.238;23.124;2023-08-07T05:14:32;96537.94;;;19.70;61.91
39411;BME280;26579;43.238;23.124;2023-08-07T05:16:58;96540.88;;;19.81;61.97
39411;BME280;26579;43.238;23.124;2023-08-07T05:19:24;96537.63;;;19.86;60.81
39411;BME280;26579;43.238;23.124;2023-08-07T05:21:50;96549.13;;;20.00;60.17
39411;BME280;26579;43.238;23.124;2023-08-07T05:24:16;96540.00;;;20.09;60.89
39411;BME280;26579;43.238;23.124;2023-08-07T05:26:42;96549.66;;;20.30;62.97
39411;BME280;26579;43.238;23.124;2023-08-07T05:29:07;96540.34;;;20.34;62.95
39411;BME280;26579;43.238;23.124;2023-08-07T05:31:33;96544.22;;;20.38;63.04
39411;BME280;26579;43.238;23.124;2023-08-07T05:33:59;96547.22;;;20.63;60.00
39411;BME280;26579;43.238;23.124;2023-08-07T05:36:25;96549.69;;;20.78;57.71
39411;BME280;26579;43.238;23.124;2023-08-07T05:38:51;96541.53;;;20.79;60.24
39411;BME280;26579;43.238;23.124;2023-08-07T05:41:17;96547.69;;;20.93;59.96
39411;BME280;26579;43.238;23.124;2023-08-07T05:43:42;96540.16;;;20.90;62.17
39411;BME280;26579;43.238;23.124;2023-08-07T05:46:08;96541.81;;;21.05;60.77
39411;BME280;26579;43.238;23.124;2023-08-07T05:48:34;96545.91;;;21.20;52.13
39411;BME280;26579;43.238;23.124;2023-08-07T05:50:59;96547.94;;;21.32;53.81
39411;BME280;26579;43.238;23.124;2023-08-07T05:53:25;96548.19;;;21.43;57.20
39411;BME280;26579;43.238;23.124;2023-08-07T05:55:51;96548.81;;;21.52;56.19
39411;BME280;26579;43.238;23.124;2023-08-07T05:58:16;96566.13;;;21.61;57.70
39411;BME280;26579;43.238;23.124;2023-08-07T06:00:42;96569.19;;;21.72;59.17
39411;BME280;26579;43.238;23.124;2023-08-07T06:03:08;96561.44;;;21.77;57.33
39411;BME280;26579;43.238;23.124;2023-08-07T06:05:34;96567.75;;;21.89;56.38
39411;BME280;26579;43.238;23.124;2023-08-07T06:08:00;96560.81;;;21.88;52.38
39411;BME280;26579;43.238;23.124;2023-08-07T06:10:25;96563.88;;;21.91;54.34
39411;BME280;26579;43.238;23.124;2023-08-07T06:12:51;96568.94;;;22.06;50.01
39411;BME280;26579;43.238;23.124;2023-08-07T06:15:17;96571.16;;;22.16;50.59
39411;BME280;26579;43.238;23.124;2023-08-07T06:17:42;96561.38;;;22.10;48.60
39411;BME280;26579;43.238;23.124;2023-08-07T06:20:09;96567.69;;;22.22;48.60
39411;BME280;26579;43.238;23.124;2023-08-07T06:22:37;96572.34;;;22.47;49.30
39411;BME280;26579;43.238;23.124;2023-08-07T06:25:03;96567.19;;;22.58;46.93
39411;BME280;26579;43.238;23.124;2023-08-07T06:27:29;96560.59;;;22.68;45.51
39411;BME280;26579;43.238;23.124;2023-08-07T06:29:55;96571.19;;;22.81;45.87
39411;BME280;26579;43.238;23.124;2023-08-07T06:32:20;96565.91;;;22.68;45.42
39411;BME280;26579;43.238;23.124;2023-08-07T06:34:46;96561.94;;;22.90;47.02
39411;BME280;26579;43.238;23.124;2023-08-07T06:37:12;96572.34;;;22.98;44.77
39411;BME280;26579;43.238;23.124;2023-08-07T06:39:37;96578.06;;;22.89;44.37
39411;BME280;26579;43.238;23.124;2023-08-07T06:42:03;96573.53;;;23.02;43.97
39411;BME280;26579;43.238;23.124;2023-08-07T06:44:33;96586.13;;;23.14;45.98
39411;BME280;26579;43.238;23.124;2023-08-07T06:46:59;96582.75;;;23.32;46.37
39411;BME280;26579;43.238;23.124;2023-08-07T06:49:25;96586.56;;;23.42;43.15
39411;BME280;26579;43.238;23.124;2023-08-07T06:51:51;96583.34;;;23.34;43.14
39411;BME280;26579;43.238;23.124;2023-08-07T06:54:16;96582.06;;;23.43;42.83
39411;BME280;26579;43.238;23.124;2023-08-07T06:56:42;96586.13;;;23.45;43.55
39411;BME280;26579;43.238;23.124;2023-08-07T06:59:08;96580.16;;;23.50;41.93
39411;BME280;26579;43.238;23.124;2023-08-07T07:01:33;96594.97;;;23.71;44.19
39411;BME280;26579;43.238;23.124;2023-08-07T07:03:59;96581.81;;;23.76;43.77
39411;BME280;26579;43.238;23.124;2023-08-07T07:06:25;96590.13;;;23.86;42.53
39411;BME280;26579;43.238;23.124;2023-08-07T07:08:50;96573.91;;;23.94;42.66
39411;BME280;26579;43.238;23.124;2023-08-07T07:11:16;96582.09;;;24.11;42.87
39411;BME280;26579;43.238;23.124;2023-08-07T07:13:42;96585.16;;;24.15;40.87
39411;BME280;26579;43.238;23.124;2023-08-07T07:16:07;96590.50;;;24.33;42.68
39411;BME280;26579;43.238;23.124;2023-08-07T07:18:33;96586.34;;;24.37;42.45
39411;BME280;26579;43.238;23.124;2023-08-07T07:20:59;96585.06;;;24.47;42.91
39411;BME280;26579;43.238;23.124;2023-08-07T07:23:25;96585.06;;;24.47;41.12
39411;BME280;26579;43.238;23.124;2023-08-07T07:25:51;96587.22;;;24.31;41.11
39411;BME280;26579;43.238;23.124;2023-08-07T07:28:16;96578.16;;;24.21;42.72
39411;BME280;26579;43.238;23.124;2023-08-07T07:30:42;96582.31;;;24.35;44.04
39411;BME280;26579;43.238;23.124;2023-08-07T07:33:08;96580.91;;;24.51;42.90
39411;BME280;26579;43.238;23.124;2023-08-07T07:35:37;96573.00;;;24.62;39.73
39411;BME280;26579;43.238;23.124;2023-08-07T07:38:03;96568.47;;;24.63;39.64
39411;BME280;26579;43.238;23.124;2023-08-07T07:40:29;96570.25;;;24.69;40.03
39411;BME280;26579;43.238;23.124;2023-08-07T07:42:54;96582.75;;;24.87;39.29
39411;BME280;26579;43.238;23.124;2023-08-07T07:45:29;96574.97;;;24.85;39.12
39411;BME280;26579;43.238;23.124;2023-08-07T07:47:55;96558.19;;;24.85;39.77
39411;BME280;26579;43.238;23.124;2023-08-07T07:50:21;96575.06;;;24.79;40.83
39411;BME280;26579;43.238;23.124;2023-08-07T07:52:47;96570.13;;;24.94;42.57
39411;BME280;26579;43.238;23.124;2023-08-07T07:55:13;96584.31;;;25.06;39.59
39411;BME280;26579;43.238;23.124;2023-08-07T07:57:38;96586.69;;;25.15;38.79
39411;BME280;26579;43.238;23.124;2023-08-07T08:00:04;96587.31;;;25.28;39.59
39411;BME280;26579;43.238;23.124;2023-08-07T08:02:37;96585.22;;;25.30;39.51
39411;BME280;26579;43.238;23.124;2023-08-07T08:05:03;96582.06;;;25.22;39.90
39411;BME280;26579;43.238;23.124;2023-08-07T08:07:29;96590.56;;;25.30;40.65
39411;BME280;26579;43.238;23.124;2023-08-07T08:09:54;96584.44;;;25.42;39.03
39411;BME280;26579;43.238;23.124;2023-08-07T08:12:21;96589.13;;;25.58;40.38
39411;BME280;26579;43.238;23.124;2023-08-07T08:14:47;96588.41;;;25.51;37.95
39411;BME280;26579;43.238;23.124;2023-08-07T08:17:13;96576.94;;;25.62;38.44
39411;BME280;26579;43.238;23.124;2023-08-07T08:19:39;96553.88;;;25.44;38.35
39411;BME280;26579;43.238;23.124;2023-08-07T08:22:05;96575.66;;;25.53;38.18
39411;BME280;26579;43.238;23.124;2023-08-07T08:24:32;96599.81;;;25.82;40.13
39411;BME280;26579;43.238;23.124;2023-08-07T08:26:58;96585.91;;;25.80;37.53
39411;BME280;26579;43.238;23.124;2023-08-07T08:29:23;96581.59;;;25.55;35.93
39411;BME280;26579;43.238;23.124;2023-08-07T08:31:49;96580.31;;;25.58;38.43
39411;BME280;26579;43.238;23.124;2023-08-07T08:34:14;96576.00;;;25.57;36.28
39411;BME280;26579;43.238;23.124;2023-08-07T08:36:40;96581.50;;;25.73;37.30
39411;BME280;26579;43.238;23.124;2023-08-07T08:39:06;96586.88;;;25.85;35.68
39411;BME280;26579;43.238;23.124;2023-08-07T08:41:31;96583.97;;;25.99;36.32
39411;BME280;26579;43.238;23.124;2023-08-07T08:43:59;96581.66;;;26.02;36.81
39411;BME280;26579;43.238;23.124;2023-08-07T08:46:28;96584.31;;;26.02;37.33
39411;BME280;26579;43.238;23.124;2023-08-07T08:48:57;96581.19;;;26.05;38.05
39411;BME280;26579;43.238;23.124;2023-08-07T08:51:24;96582.69;;;26.25;37.12
39411;BME280;26579;43.238;23.124;2023-08-07T08:53:52;96580.59;;;26.27;38.00
39411;BME280;26579;43.238;23.124;2023-08-07T08:56:18;96568.75;;;26.34;36.66
39411;BME280;26579;43.238;23.124;2023-08-07T08:58:43;96574.06;;;26.46;36.90
39411;BME280;26579;43.238;23.124;2023-08-07T09:01:09;96575.94;;;26.46;36.52
39411;BME280;26579;43.238;23.124;2023-08-07T09:03:36;96572.00;;;26.36;36.75
39411;BME280;26579;43.238;23.124;2023-08-07T09:06:02;96576.41;;;26.42;36.59
39411;BME280;26579;43.238;23.124;2023-08-07T09:08:27;96572.16;;;26.18;37.32
39411;BME280;26579;43.238;23.124;2023-08-07T09:10:53;96578.03;;;26.20;36.50
39411;BME280;26579;43.238;23.124;2023-08-07T09:13:23;96570.50;;;26.29;37.44
39411;BME280;26579;43.238;23.124;2023-08-07T09:15:50;96574.09;;;26.23;37.66
39411;BME280;26579;43.238;23.124;2023-08-07T09:18:17;96568.06;;;26.39;39.57
39411;BME280;26579;43.238;23.124;2023-08-07T09:20:43;96564.34;;;26.40;36.65
39411;BME280;26579;43.238;23.124;2023-08-07T09:23:09;96563.53;;;26.39;36.62
39411;BME280;26579;43.238;23.124;2023-08-07T09:25:35;96563.53;;;26.51;38.31
39411;BME280;26579;43.238;23.124;2023-08-07T09:28:02;96571.03;;;26.66;37.54
39411;BME280;26579;43.238;23.124;2023-08-07T09:30:29;96576.16;;;26.68;36.53
39411;BME280;26579;43.238;23.124;2023-08-07T09:32:57;96582.06;;;26.70;36.66
39411;BME280;26579;43.238;23.124;2023-08-07T09:35:22;96584.16;;;26.96;37.12
39411;BME280;26579;43.238;23.124;2023-08-07T09:37:49;96577.41;;;26.77;36.86
39411;BME280;26579;43.238;23.124;2023-08-07T09:40:17;96580.84;;;26.89;36.41
39411;BME280;26579;43.238;23.124;2023-08-07T09:42:42;96576.06;;;26.91;36.61
39411;BME280;26579;43.238;23.124;2023-08-07T09:45:26;96579.94;;;26.83;37.55
39411;BME280;26579;43.238;23.124;2023-08-07T09:48:02;96572.69;;;26.96;36.78
39411;BME280;26579;43.238;23.124;2023-08-07T09:50:31;96581.31;;;26.86;35.90
39411;BME280;26579;43.238;23.124;2023-08-07T09:52:58;96587.28;;;27.05;37.43
39411;BME280;26579;43.238;23.124;2023-08-07T09:55:25;96564.84;;;27.18;35.63
39411;BME280;26579;43.238;23.124;2023-08-07T09:57:52;96575.22;;;27.31;36.17
39411;BME280;26579;43.238;23.124;2023-08-07T10:00:20;96579.28;;;27.34;36.59
39411;BME280;26579;43.238;23.124;2023-08-07T10:02:47;96592.69;;;27.22;36.82
39411;BME280;26579;43.238;23.124;2023-08-07T10:05:13;96583.66;;;27.23;35.82
39411;BME280;26579;43.238;23.124;2023-08-07T10:07:40;96589.56;;;27.13;35.96
39411;BME280;26579;43.238;23.124;2023-08-07T10:10:07;96584.38;;;27.06;37.13
39411;BME280;26579;43.238;23.124;2023-08-07T10:12:33;96578.38;;;27.28;36.99
39411;BME280;26579;43.238;23.124;2023-08-07T10:14:59;96580.25;;;27.44;35.34
39411;BME280;26579;43.238;23.124;2023-08-07T10:17:25;96560.91;;;27.54;35.54
39411;BME280;26579;43.238;23.124;2023-08-07T10:19:51;96570.63;;;27.60;35.76
39411;BME280;26579;43.238;23.124;2023-08-07T10:22:20;96565.28;;;27.77;36.76
39411;BME280;26579;43.238;23.124;2023-08-07T10:24:53;96556.19;;;27.27;35.10
39411;BME280;26579;43.238;23.124;2023-08-07T10:27:21;96577.34;;;27.29;36.27
39411;BME280;26579;43.238;23.124;2023-08-07T10:29:49;96576.19;;;27.13;35.71
39411;BME280;26579;43.238;23.124;2023-08-07T10:32:19;96574.31;;;27.25;36.10
39411;BME280;26579;43.238;23.124;2023-08-07T10:34:51;96562.03;;;27.41;37.27
39411;BME280;26579;43.238;23.124;2023-08-07T10:37:39;96565.13;;;27.67;35.59
39411;BME280;26579;43.238;23.124;2023-08-07T10:40:07;96577.44;;;27.68;35.40
39411;BME280;26579;43.238;23.124;2023-08-07T10:42:55;96574.53;;;27.86;37.15
39411;BME280;26579;43.238;23.124;2023-08-07T10:45:22;96571.03;;;28.03;35.80
39411;BME280;26579;43.238;23.124;2023-08-07T10:48:08;96576.72;;;27.89;34.66
39411;BME280;26579;43.238;23.124;2023-08-07T10:50:35;96571.44;;;27.77;36.13
39411;BME280;26579;43.238;23.124;2023-08-07T10:53:18;96572.25;;;27.95;35.60
39411;BME280;26579;43.238;23.124;2023-08-07T10:55:45;96566.50;;;27.69;35.99
39411;BME280;26579;43.238;23.124;2023-08-07T10:58:24;96573.97;;;27.67;37.12
39411;BME280;26579;43.238;23.124;2023-08-07T11:01:39;96559.13;;;27.60;35.27
39411;BME280;26579;43.238;23.124;2023-08-07T11:03:37;96555.66;;;27.76;35.61
39411;BME280;26579;43.238;23.124;2023-08-07T11:06:03;96559.56;;;27.85;36.81
39411;BME280;26579;43.238;23.124;2023-08-07T11:08:29;96544.63;;;27.89;34.26
39411;BME280;26579;43.238;23.124;2023-08-07T11:10:55;96552.41;;;27.91;37.45
39411;BME280;26579;43.238;23.124;2023-08-07T11:13:21;96549.81;;;27.96;34.52
39411;BME280;26579;43.238;23.124;2023-08-07T11:15:47;96536.75;;;27.99;35.36
39411;BME280;26579;43.238;23.124;2023-08-07T11:18:13;96538.22;;;28.07;34.81
39411;BME280;26579;43.238;23.124;2023-08-07T11:20:39;96524.97;;;28.17;36.75
39411;BME280;26579;43.238;23.124;2023-08-07T11:23:05;96533.94;;;28.28;37.09
39411;BME280;26579;43.238;23.124;2023-08-07T11:25:31;96541.66;;;28.25;35.62
39411;BME280;26579;43.238;23.124;2023-08-07T11:27:56;96547.94;;;28.35;35.89
39411;BME280;26579;43.238;23.124;2023-08-07T11:30:22;96541.03;;;28.01;34.64
39411;BME280;26579;43.238;23.124;2023-08-07T11:32:48;96538.66;;;27.82;35.25
39411;BME280;26579;43.238;23.124;2023-08-07T11:35:14;96546.34;;;27.79;36.01
39411;BME280;26579;43.238;23.124;2023-08-07T11:37:47;96535.59;;;27.28;35.99
39411;BME280;26579;43.238;23.124;2023-08-07T11:40:13;96545.41;;;27.39;37.98
39411;BME280;26579;43.238;23.124;2023-08-07T11:42:40;96540.19;;;27.61;38.39
39411;BME280;26579;43.238;23.124;2023-08-07T11:45:07;96546.13;;;27.18;35.78
39411;BME280;26579;43.238;23.124;2023-08-07T11:47:33;96545.97;;;26.96;36.75
39411;BME280;26579;43.238;23.124;2023-08-07T11:49:58;96543.13;;;27.14;36.97
39411;BME280;26579;43.238;23.124;2023-08-07T11:52:25;96540.56;;;27.07;36.61
39411;BME280;26579;43.238;23.124;2023-08-07T11:54:52;96547.88;;;27.12;37.42
39411;BME280;26579;43.238;23.124;2023-08-07T11:57:20;96551.84;;;27.09;36.60
39411;BME280;26579;43.238;23.124;2023-08-07T11:59:52;96544.28;;;27.18;38.00
39411;BME280;26579;43.238;23.124;2023-08-07T12:02:23;96541.75;;;27.28;37.23
39411;BME280;26579;43.238;23.124;2023-08-07T12:04:49;96543.81;;;27.09;37.22
39411;BME280;26579;43.238;23.124;2023-08-07T12:07:17;96541.25;;;26.86;37.04
39411;BME280;26579;43.238;23.124;2023-08-07T12:09:43;96551.63;;;26.99;37.33
39411;BME280;26579;43.238;23.124;2023-08-07T12:12:11;96528.25;;;27.18;37.64
39411;BME280;26579;43.238;23.124;2023-08-07T12:14:38;96521.28;;;27.34;36.81
39411;BME280;26579;43.238;23.124;2023-08-07T12:17:04;96526.56;;;27.63;37.05
39411;BME280;26579;43.238;23.124;2023-08-07T12:19:39;96527.94;;;27.82;36.78
39411;BME280;26579;43.238;23.124;2023-08-07T12:22:10;96536.84;;;27.71;35.98
39411;BME280;26579;43.238;23.124;2023-08-07T12:24:36;96538.31;;;27.62;36.20
39411;BME280;26579;43.238;23.124;2023-08-07T12:27:02;96538.94;;;27.69;36.85
39411;BME280;26579;43.238;23.124;2023-08-07T12:29:27;96545.34;;;27.68;37.92
39411;BME280;26579;43.238;23.124;2023-08-07T12:31:53;96534.09;;;27.66;38.06
39411;BME280;26579;43.238;23.124;2023-08-07T12:34:19;96537.00;;;27.64;38.04
39411;BME280;26579;43.238;23.124;2023-08-07T12:36:44;96524.44;;;27.65;38.65
39411;BME280;26579;43.238;23.124;2023-08-07T12:39:10;96533.38;;;27.87;37.87
39411;BME280;26579;43.238;23.124;2023-08-07T12:41:36;96520.72;;;27.83;36.38
39411;BME280;26579;43.238;23.124;2023-08-07T12:44:01;96537.06;;;28.03;35.50
39411;BME280;26579;43.238;23.124;2023-08-07T12:46:27;96537.75;;;27.93;36.19
39411;BME280;26579;43.238;23.124;2023-08-07T12:48:52;96545.78;;;27.93;37.06
39411;BME280;26579;43.238;23.124;2023-08-07T12:51:18;96535.53;;;27.57;36.11
39411;BME280;26579;43.238;23.124;2023-08-07T12:53:44;96548.91;;;27.40;36.05
39411;BME280;26579;43.238;23.124;2023-08-07T12:56:10;96544.72;;;27.44;36.70
39411;BME280;26579;43.238;23.124;2023-08-07T12:58:35;96538.84;;;27.30;36.85